Time;durP1;ratioP1;P1;durP2;ratioP2;P2;SDS_P1;SDS_P2;PMS_P1;PMS_P2;Temp;Humidity;BMP_temperature;BMP_pressure;BME280_temperature;BME280_humidity;BME280_pressure;Samples;Min_cycle;Max_cycle;Signal;HPM_P1;HPM_P2
2023/07/28 00:00:08;;;;;;;1.17;0.77;;;21.80;99.90;;;;;;5091895;28;20206;-87
2023/07/28 00:02:36;;;;;;;0.80;0.80;;;21.80;99.90;;;;;;5078069;28;20184;-87
2023/07/28 00:05:05;;;;;;;1.13;0.70;;;21.80;99.90;;;;;;5076351;28;20197;-87
2023/07/28 00:07:36;;;;;;;0.97;0.87;;;21.80;99.90;;;;;;5078101;28;20274;-87
2023/07/28 00:10:42;;;;;;;1.53;1.00;;;21.80;99.90;;;;;;5063101;28;20589;-87
2023/07/28 00:13:11;;;;;;;0.80;0.80;;;21.80;99.90;;;;;;5074967;28;20211;-86
2023/07/28 00:15:36;;;;;;;1.00;0.90;;;21.80;99.90;;;;;;5060133;28;20190;-87
2023/07/28 00:18:02;;;;;;;2.67;0.90;;;21.80;99.90;;;;;;5093988;28;20569;-87
2023/07/28 00:20:49;;;;;;;1.43;0.90;;;21.80;99.90;;;;;;5077982;28;20548;-87
2023/07/28 00:23:15;;;;;;;1.23;1.00;;;21.80;99.90;;;;;;5073767;28;20191;-87
2023/07/28 00:25:40;;;;;;;1.17;0.90;;;21.80;99.90;;;;;;5072178;28;20206;-87
2023/07/28 00:28:09;;;;;;;1.07;0.83;;;21.80;99.90;;;;;;4465997;28;17495044;-87
2023/07/28 00:30:35;;;;;;;0.87;0.70;;;21.80;99.90;;;;;;5095864;28;20211;-87
2023/07/28 00:33:00;;;;;;;2.80;1.13;;;21.80;99.90;;;;;;5078830;28;20217;-87
2023/07/28 00:35:32;;;;;;;1.37;0.73;;;21.80;99.90;;;;;;5095673;28;20191;-87
2023/07/28 00:37:59;;;;;;;1.20;0.80;;;21.80;99.90;;;;;;5015964;28;20175;-87
2023/07/28 00:40:24;;;;;;;2.10;0.80;;;21.80;99.90;;;;;;5078163;28;20573;-87
2023/07/28 00:42:53;;;;;;;1.33;0.80;;;21.80;99.90;;;;;;5074533;28;20199;-87
2023/07/28 00:45:18;;;;;;;1.67;1.00;;;21.80;99.90;;;;;;5068458;28;20456;-87
2023/07/28 00:47:47;;;;;;;1.50;0.73;;;21.80;99.90;;;;;;5068316;28;20187;-87
2023/07/28 00:50:13;;;;;;;1.00;0.80;;;21.80;99.90;;;;;;5077768;28;20239;-87
2023/07/28 00:52:54;;;;;;;1.20;0.90;;;21.80;99.90;;;;;;5087089;28;20184;-87
2023/07/28 00:55:22;;;;;;;1.13;0.90;;;21.80;99.90;;;;;;5079761;28;20175;-87
2023/07/28 00:57:47;;;;;;;1.40;0.90;;;21.80;99.90;;;;;;5077542;28;20177;-87
2023/07/28 01:00:13;;;;;;;1.33;0.90;;;21.80;99.90;;;;;;5078914;28;20464;-87
2023/07/28 01:02:47;;;;;;;1.07;0.83;;;21.80;99.90;;;;;;5089502;28;20184;-87
2023/07/28 01:05:13;;;;;;;1.07;0.90;;;21.80;99.90;;;;;;5067074;28;20195;-87
2023/07/28 01:08:27;;;;;;;1.13;0.93;;;21.80;99.90;;;;;;5077143;28;20178;-87
2023/07/28 01:10:56;;;;;;;1.50;0.93;;;21.80;99.90;;;;;;5020759;28;20262;-87
2023/07/28 01:13:34;;;;;;;2.00;0.90;;;21.80;99.90;;;;;;5020847;28;20201;-87
2023/07/28 01:16:03;;;;;;;0.97;0.80;;;21.80;99.90;;;;;;5027792;28;20213;-88
2023/07/28 01:18:32;;;;;;;1.17;0.90;;;21.80;99.90;;;;;;5041834;28;20201;-87
2023/07/28 01:21:04;;;;;;;1.07;0.90;;;21.80;99.90;;;;;;5060637;28;20184;-87
2023/07/28 01:24:05;;;;;;;1.07;0.70;;;21.80;99.90;;;;;;5075769;28;20180;-87
2023/07/28 01:26:36;;;;;;;1.17;0.77;;;21.80;99.90;;;;;;5073407;28;20560;-88
2023/07/28 01:29:09;;;;;;;1.07;0.83;;;21.80;99.90;;;;;;5077946;28;20199;-88
2023/07/28 01:32:02;;;;;;;0.90;0.77;;;21.80;99.90;;;;;;5075883;28;20722;-88
2023/07/28 01:34:28;;;;;;;1.43;1.00;;;21.80;99.90;;;;;;5078689;28;20266;-88
2023/07/28 01:36:53;;;;;;;0.87;0.80;;;21.80;99.90;;;;;;5074585;28;20207;-87
2023/07/28 01:39:22;;;;;;;4.57;1.10;;;21.70;99.90;;;;;;5072132;28;20199;-87
2023/07/28 01:41:50;;;;;;;1.17;0.83;;;21.80;99.90;;;;;;5064527;28;20252;-87
2023/07/28 01:44:18;;;;;;;1.73;0.80;;;21.80;99.90;;;;;;5074788;28;20180;-88
2023/07/28 01:46:44;;;;;;;1.97;1.00;;;21.80;99.90;;;;;;5070743;28;20179;-88
2023/07/28 01:49:10;;;;;;;2.40;1.10;;;21.80;99.90;;;;;;5075885;28;20606;-88
2023/07/28 01:51:41;;;;;;;0.60;0.60;;;21.80;99.90;;;;;;5077447;28;20171;-88
2023/07/28 01:54:30;;;;;;;1.17;0.90;;;21.80;99.90;;;;;;5060896;28;20180;-87
2023/07/28 01:56:55;;;;;;;1.03;0.90;;;21.70;99.90;;;;;;5068117;28;20208;-87
2023/07/28 01:59:24;;;;;;;0.87;0.80;;;21.70;99.90;;;;;;5073523;28;20199;-87
2023/07/28 02:01:52;;;;;;;0.90;0.80;;;21.70;99.90;;;;;;5077751;28;20185;-88
2023/07/28 02:04:20;;;;;;;1.27;0.70;;;21.80;99.90;;;;;;5070598;28;20186;-88
2023/07/28 02:06:46;;;;;;;1.50;0.80;;;21.80;99.90;;;;;;5068117;28;20727;-87
2023/07/28 02:09:14;;;;;;;1.03;0.83;;;21.70;99.90;;;;;;5060325;28;20218;-87
2023/07/28 02:11:43;;;;;;;0.83;0.70;;;21.80;99.90;;;;;;5076915;28;20286;-87
2023/07/28 02:14:15;;;;;;;1.17;0.80;;;21.70;99.90;;;;;;5074527;28;20176;-87
2023/07/28 02:16:43;;;;;;;0.87;0.70;;;21.70;99.90;;;;;;5067992;28;20274;-87
2023/07/28 02:19:12;;;;;;;0.70;0.70;;;21.80;99.90;;;;;;5076869;28;20243;-87
2023/07/28 02:21:37;;;;;;;0.80;0.80;;;21.70;99.90;;;;;;5076989;28;20325;-87
2023/07/28 02:24:06;;;;;;;2.07;0.70;;;21.70;99.90;;;;;;5069574;28;20258;-87
2023/07/28 02:26:31;;;;;;;1.83;0.80;;;21.70;99.90;;;;;;5073927;28;20719;-87
2023/07/28 02:28:57;;;;;;;0.70;0.70;;;21.70;99.90;;;;;;5069439;28;20183;-87
2023/07/28 02:31:23;;;;;;;1.33;0.83;;;21.70;99.90;;;;;;5073587;28;20639;-87
2023/07/28 02:33:49;;;;;;;0.73;0.70;;;21.70;99.90;;;;;;5069755;28;20213;-87
2023/07/28 02:36:14;;;;;;;0.83;0.60;;;21.80;99.90;;;;;;5073195;28;20264;-87
2023/07/28 02:38:41;;;;;;;2.50;0.80;;;21.70;99.90;;;;;;5069928;28;20606;-88
2023/07/28 02:41:14;;;;;;;2.30;0.60;;;21.70;99.90;;;;;;5073875;28;20168;-87
2023/07/28 02:43:40;;;;;;;2.10;0.70;;;21.70;99.90;;;;;;5072573;28;20192;-88
2023/07/28 02:46:14;;;;;;;1.73;0.70;;;21.70;99.90;;;;;;5077146;28;20215;-87
2023/07/28 02:48:41;;;;;;;0.63;0.63;;;21.70;99.90;;;;;;5076710;28;20584;-87
2023/07/28 02:51:07;;;;;;;1.13;0.70;;;21.70;99.90;;;;;;5076706;28;20796;-87
2023/07/28 02:53:36;;;;;;;0.70;0.70;;;21.70;99.90;;;;;;5077168;28;20254;-87
2023/07/28 02:56:01;;;;;;;0.60;0.60;;;21.70;99.90;;;;;;5076288;28;20565;-87
2023/07/28 02:58:48;;;;;;;0.80;0.53;;;21.70;99.90;;;;;;5076267;28;20274;-87
2023/07/28 03:01:14;;;;;;;0.83;0.60;;;21.70;99.90;;;;;;5077319;28;20168;-87
2023/07/28 03:03:40;;;;;;;1.30;0.70;;;21.80;99.90;;;;;;5076512;28;20183;-88
2023/07/28 03:06:06;;;;;;;0.80;0.80;;;21.80;99.90;;;;;;5076054;28;20182;-87
2023/07/28 03:08:34;;;;;;;0.70;0.70;;;21.70;99.90;;;;;;5072890;28;20183;-87
2023/07/28 03:11:06;;;;;;;0.50;0.50;;;21.70;99.90;;;;;;5059370;28;20269;-87
2023/07/28 03:13:32;;;;;;;1.67;0.60;;;21.70;99.90;;;;;;5079527;28;20187;-87
2023/07/28 03:15:58;;;;;;;1.50;0.63;;;21.70;99.90;;;;;;5074304;28;20188;-87
2023/07/28 03:18:23;;;;;;;0.60;0.60;;;21.70;99.90;;;;;;5073888;28;20237;-87
2023/07/28 03:20:57;;;;;;;1.17;0.60;;;21.70;99.90;;;;;;5071447;28;20191;-87
2023/07/28 03:23:23;;;;;;;0.60;0.60;;;21.70;99.90;;;;;;5076228;28;20225;-87
2023/07/28 03:25:52;;;;;;;0.70;0.70;;;21.70;99.90;;;;;;5076266;28;20210;-87
2023/07/28 03:28:20;;;;;;;0.73;0.70;;;21.70;99.90;;;;;;5092962;28;20191;-87
2023/07/28 03:30:46;;;;;;;0.40;0.40;;;21.70;99.90;;;;;;5076212;28;20222;-87
2023/07/28 03:33:12;;;;;;;0.60;0.60;;;21.70;99.90;;;;;;5072221;28;20184;-86
2023/07/28 03:35:37;;;;;;;1.53;0.67;;;21.70;99.90;;;;;;5068930;28;20562;-87
2023/07/28 03:38:03;;;;;;;0.97;0.60;;;21.70;99.90;;;;;;5079592;28;20175;-87
2023/07/28 03:40:30;;;;;;;0.60;0.60;;;21.70;99.90;;;;;;5071963;28;20197;-88
2023/07/28 03:42:58;;;;;;;0.60;0.57;;;21.70;99.90;;;;;;5077129;28;20195;-86
2023/07/28 03:45:24;;;;;;;1.17;0.70;;;21.70;99.90;;;;;;5063934;28;20179;-87
2023/07/28 03:47:50;;;;;;;0.70;0.70;;;21.70;99.90;;;;;;5078303;28;20191;-88
2023/07/28 03:50:30;;;;;;;0.60;0.60;;;21.70;99.90;;;;;;5075634;28;20677;-87
2023/07/28 03:53:05;;;;;;;0.77;0.70;;;21.70;99.90;;;;;;5078653;28;20229;-88
2023/07/28 03:55:33;;;;;;;1.27;0.67;;;21.70;99.90;;;;;;5063976;28;20171;-87
2023/07/28 03:57:59;;;;;;;1.40;0.73;;;21.70;99.90;;;;;;5080155;28;20171;-88
2023/07/28 04:00:39;;;;;;;0.73;0.73;;;21.70;99.90;;;;;;5075034;28;20337;-88
2023/07/28 04:03:04;;;;;;;0.93;0.60;;;21.70;99.90;;;;;;5076604;28;20557;-88
2023/07/28 04:05:35;;;;;;;1.37;0.70;;;21.70;99.90;;;;;;5079655;28;20201;-88
2023/07/28 04:08:01;;;;;;;1.43;0.70;;;21.70;99.90;;;;;;5080211;28;20256;-88
2023/07/28 04:10:31;;;;;;;0.80;0.60;;;21.70;99.90;;;;;;5079337;28;20317;-88
2023/07/28 04:12:56;;;;;;;0.90;0.60;;;21.70;99.90;;;;;;5084346;28;20275;-88
2023/07/28 04:15:22;;;;;;;0.50;0.50;;;21.70;99.90;;;;;;5094587;28;20329;-87
2023/07/28 04:17:47;;;;;;;1.17;0.60;;;21.70;99.90;;;;;;5079233;28;20278;-88
2023/07/28 04:20:16;;;;;;;0.60;0.60;;;21.70;99.90;;;;;;5071399;28;20472;-88
2023/07/28 04:22:41;;;;;;;0.80;0.50;;;21.70;99.90;;;;;;5068697;28;20326;-88
2023/07/28 04:25:13;;;;;;;0.93;0.60;;;21.70;99.90;;;;;;5069486;28;20275;-88
2023/07/28 04:27:39;;;;;;;0.70;0.50;;;21.70;99.90;;;;;;5068310;28;20734;-88
2023/07/28 04:30:08;;;;;;;0.77;0.70;;;21.70;99.90;;;;;;5062063;28;20219;-88
2023/07/28 04:32:34;;;;;;;0.77;0.77;;;21.70;99.90;;;;;;5069932;28;20186;-88
2023/07/28 04:35:00;;;;;;;0.80;0.77;;;21.70;99.90;;;;;;5070934;28;20337;-88
2023/07/28 04:37:34;;;;;;;0.70;0.70;;;21.70;99.90;;;;;;5070914;28;20195;-88
2023/07/28 04:40:03;;;;;;;0.60;0.50;;;21.70;99.90;;;;;;5062683;28;20724;-88
2023/07/28 04:42:29;;;;;;;0.60;0.60;;;21.70;99.90;;;;;;5067753;28;20242;-88
2023/07/28 04:45:09;;;;;;;0.80;0.67;;;21.70;99.90;;;;;;5066493;28;20179;-88
2023/07/28 04:47:37;;;;;;;0.90;0.63;;;21.80;99.90;;;;;;5079518;28;20184;-88
2023/07/28 04:50:10;;;;;;;0.57;0.57;;;21.80;99.90;;;;;;5063818;28;20523;-88
2023/07/28 04:52:36;;;;;;;0.67;0.67;;;21.70;99.90;;;;;;5076380;28;20241;-88
2023/07/28 04:55:02;;;;;;;2.30;0.63;;;21.70;99.90;;;;;;5067565;28;20188;-88
2023/07/28 04:57:30;;;;;;;0.70;0.70;;;21.70;99.90;;;;;;5072576;28;20256;-87
2023/07/28 04:59:58;;;;;;;1.20;0.70;;;21.70;99.90;;;;;;5063933;28;20249;-88
2023/07/28 05:02:25;;;;;;;1.03;0.70;;;21.70;99.90;;;;;;5070887;28;20184;-88
2023/07/28 05:04:56;;;;;;;1.43;0.73;;;21.70;99.90;;;;;;5062436;28;20191;-88
2023/07/28 05:07:25;;;;;;;0.80;0.70;;;21.70;99.90;;;;;;5063273;28;20246;-88
2023/07/28 05:09:50;;;;;;;0.90;0.83;;;21.80;99.90;;;;;;5061935;28;20615;-88
2023/07/28 05:12:17;;;;;;;0.70;0.70;;;21.80;99.90;;;;;;5060752;28;20191;-88
2023/07/28 05:14:55;;;;;;;1.47;0.80;;;21.80;99.90;;;;;;5061594;28;20179;-88
2023/07/28 05:17:21;;;;;;;0.87;0.70;;;21.80;99.90;;;;;;5059954;28;20485;-88
2023/07/28 05:19:57;;;;;;;0.87;0.80;;;21.90;99.90;;;;;;5061696;28;20468;-88
2023/07/28 05:22:25;;;;;;;0.73;0.73;;;21.90;99.90;;;;;;5063251;28;20263;-88
2023/07/28 05:24:54;;;;;;;0.90;0.80;;;21.90;99.90;;;;;;5059455;28;20288;-88
2023/07/28 05:27:19;;;;;;;0.70;0.60;;;21.90;99.90;;;;;;5058904;28;20204;-88
2023/07/28 05:29:45;;;;;;;0.60;0.60;;;21.90;99.90;;;;;;5068117;28;20410;-88
2023/07/28 05:32:11;;;;;;;0.90;0.73;;;21.90;99.90;;;;;;5060503;28;20183;-88
2023/07/28 05:34:37;;;;;;;1.97;0.70;;;21.90;99.90;;;;;;5061033;28;20252;-87
2023/07/28 05:37:03;;;;;;;0.70;0.70;;;21.90;99.90;;;;;;5058236;28;20350;-88
2023/07/28 05:39:28;;;;;;;0.67;0.67;;;21.90;99.90;;;;;;5056627;28;20549;-88
2023/07/28 05:41:57;;;;;;;0.80;0.70;;;22.00;99.90;;;;;;5062100;28;20191;-88
2023/07/28 05:44:25;;;;;;;0.90;0.80;;;22.00;99.90;;;;;;5060417;28;20188;-88
2023/07/28 05:47:12;;;;;;;0.60;0.60;;;22.00;99.90;;;;;;5059540;28;20293;-88
2023/07/28 05:49:44;;;;;;;0.73;0.73;;;22.00;99.90;;;;;;5063217;28;20208;-88
2023/07/28 05:52:09;;;;;;;3.37;0.90;;;22.00;99.90;;;;;;5059990;28;20230;-88
2023/07/28 05:54:36;;;;;;;0.70;0.70;;;22.00;99.90;;;;;;5058143;28;20211;-88
2023/07/28 05:57:02;;;;;;;1.17;0.70;;;22.00;99.90;;;;;;5061569;28;20190;-88
2023/07/28 05:59:31;;;;;;;1.10;0.83;;;21.90;99.90;;;;;;5041371;28;20191;-88
2023/07/28 06:01:59;;;;;;;1.57;0.70;;;22.00;99.90;;;;;;5059325;28;20183;-88
2023/07/28 06:04:27;;;;;;;1.10;0.70;;;22.00;99.90;;;;;;5056479;28;20192;-88
2023/07/28 06:06:53;;;;;;;0.70;0.70;;;22.00;99.90;;;;;;5061443;28;20184;-88
2023/07/28 06:09:19;;;;;;;1.10;0.90;;;22.00;99.90;;;;;;5059376;28;20204;-88
2023/07/28 06:11:47;;;;;;;1.67;0.90;;;22.00;99.90;;;;;;5025735;28;20187;-88
2023/07/28 06:14:16;;;;;;;0.73;0.73;;;22.00;99.90;;;;;;5055084;28;20332;-87
2023/07/28 06:16:44;;;;;;;1.67;0.63;;;22.00;99.90;;;;;;5059311;28;20194;-88
2023/07/28 06:19:13;;;;;;;2.20;1.00;;;22.10;99.90;;;;;;5059662;28;20346;-89
2023/07/28 06:21:42;;;;;;;1.60;0.90;;;22.10;99.90;;;;;;5057921;28;20605;-88
2023/07/28 06:24:08;;;;;;;1.43;0.80;;;22.10;99.90;;;;;;5056864;28;20187;-89
2023/07/28 06:26:54;;;;;;;1.07;0.70;;;22.10;99.90;;;;;;5058091;28;20191;-88
2023/07/28 06:29:19;;;;;;;1.50;0.70;;;22.10;99.90;;;;;;5057015;28;20219;-88
2023/07/28 06:31:52;;;;;;;1.70;0.90;;;22.10;99.90;;;;;;5056991;28;20248;-88
2023/07/28 06:34:21;;;;;;;0.93;0.70;;;22.10;99.90;;;;;;5057277;28;20191;-88
2023/07/28 06:36:49;;;;;;;0.70;0.70;;;22.10;99.90;;;;;;5054617;28;20187;-88
2023/07/28 06:39:19;;;;;;;1.30;0.80;;;22.10;99.90;;;;;;5060579;28;20582;-89
2023/07/28 06:41:45;;;;;;;1.10;0.80;;;22.10;99.90;;;;;;5058922;28;20187;-88
2023/07/28 06:44:11;;;;;;;2.37;0.83;;;22.20;99.90;;;;;;5054933;28;20188;-88
2023/07/28 06:46:37;;;;;;;0.80;0.80;;;22.20;99.90;;;;;;5058793;28;20214;-88
2023/07/28 06:49:03;;;;;;;1.43;0.80;;;22.10;99.90;;;;;;5056818;28;20436;-88
2023/07/28 06:51:33;;;;;;;0.90;0.77;;;22.20;99.90;;;;;;5054691;28;20176;-88
2023/07/28 06:53:59;;;;;;;3.90;0.80;;;22.20;99.90;;;;;;5055522;28;20516;-88
2023/07/28 06:56:27;;;;;;;2.93;0.70;;;22.20;99.90;;;;;;5054342;28;20184;-88
2023/07/28 06:58:53;;;;;;;1.97;0.80;;;22.20;99.90;;;;;;5052029;28;20275;-88
2023/07/28 07:01:22;;;;;;;1.43;1.13;;;22.20;99.90;;;;;;5055569;28;20282;-89
2023/07/28 07:03:51;;;;;;;2.33;0.70;;;22.20;99.90;;;;;;5056960;28;20336;-88
2023/07/28 07:06:20;;;;;;;0.80;0.80;;;22.20;99.90;;;;;;5056688;28;20176;-88
2023/07/28 07:08:45;;;;;;;1.43;0.80;;;22.20;99.90;;;;;;5058811;28;20183;-89
2023/07/28 07:11:15;;;;;;;0.93;0.80;;;22.20;99.90;;;;;;5054783;28;20206;-89
2023/07/28 07:13:41;;;;;;;2.50;0.80;;;22.20;99.90;;;;;;5055928;28;20206;-88
2023/07/28 07:16:19;;;;;;;0.73;0.73;;;22.20;99.90;;;;;;5054872;28;20558;-88
2023/07/28 07:18:45;;;;;;;0.70;0.70;;;22.30;99.90;;;;;;5070405;28;20482;-88
2023/07/28 07:21:14;;;;;;;1.17;0.90;;;22.30;99.90;;;;;;5051134;28;20199;-88
2023/07/28 07:23:40;;;;;;;2.07;0.90;;;22.30;99.90;;;;;;5052398;28;20290;-88
2023/07/28 07:26:09;;;;;;;3.33;1.00;;;22.30;99.90;;;;;;5052012;28;20188;-88
2023/07/28 07:28:42;;;;;;;1.73;0.70;;;22.30;99.90;;;;;;5054407;28;20871;-88
2023/07/28 07:31:14;;;;;;;1.03;0.90;;;22.30;99.90;;;;;;5054728;28;20273;-88
2023/07/28 07:33:43;;;;;;;0.80;0.80;;;22.30;99.90;;;;;;5055725;28;20203;-88
2023/07/28 07:36:16;;;;;;;1.03;0.70;;;22.30;99.90;;;;;;5056388;28;20616;-88
2023/07/28 07:38:46;;;;;;;2.23;0.90;;;22.40;99.90;;;;;;5051433;28;20275;-88
2023/07/28 07:41:15;;;;;;;1.17;0.80;;;22.40;99.90;;;;;;5052130;28;20184;-88
2023/07/28 07:43:41;;;;;;;1.03;0.93;;;22.40;99.90;;;;;;5052486;28;20515;-88
2023/07/28 07:46:10;;;;;;;1.10;1.00;;;22.40;99.90;;;;;;5052191;28;20192;-88
2023/07/28 07:48:36;;;;;;;1.57;1.00;;;22.50;99.90;;;;;;5051279;28;20734;-88
2023/07/28 07:51:07;;;;;;;0.83;0.83;;;22.50;99.90;;;;;;5055399;28;20219;-88
2023/07/28 07:53:32;;;;;;;0.80;0.80;;;22.50;99.90;;;;;;5053346;28;20214;-88
2023/07/28 07:55:58;;;;;;;1.70;0.90;;;22.40;99.90;;;;;;5055556;28;20332;-87
2023/07/28 07:58:24;;;;;;;1.10;1.00;;;22.40;99.90;;;;;;5053431;28;20188;-87
2023/07/28 08:01:00;;;;;;;0.90;0.87;;;22.40;99.90;;;;;;5056108;28;20179;-88
2023/07/28 08:03:26;;;;;;;1.60;1.00;;;22.40;99.90;;;;;;5055385;28;20457;-88
2023/07/28 08:05:52;;;;;;;1.00;0.90;;;22.40;99.90;;;;;;5055488;28;20188;-88
2023/07/28 08:08:19;;;;;;;0.90;0.90;;;22.40;99.90;;;;;;5053018;28;20735;-88
2023/07/28 08:10:47;;;;;;;1.10;1.00;;;22.50;99.90;;;;;;5053945;28;20641;-87
2023/07/28 08:13:16;;;;;;;1.10;1.00;;;22.50;99.90;;;;;;5050633;28;20275;-86
2023/07/28 08:15:45;;;;;;;0.90;0.90;;;22.60;99.90;;;;;;5049702;28;20477;-86
2023/07/28 08:18:15;;;;;;;1.47;1.10;;;22.60;99.90;;;;;;5048944;28;20180;-86
2023/07/28 08:20:41;;;;;;;1.10;1.00;;;22.70;99.90;;;;;;5053017;28;20226;-86
2023/07/28 08:23:09;;;;;;;1.40;1.07;;;22.70;99.90;;;;;;5060333;28;20180;-86
2023/07/28 08:25:39;;;;;;;1.37;1.00;;;22.70;99.90;;;;;;5052215;28;20285;-86
2023/07/28 08:28:07;;;;;;;0.90;0.90;;;22.70;99.90;;;;;;5057946;28;20342;-86
2023/07/28 08:30:33;;;;;;;1.20;1.10;;;22.70;99.90;;;;;;5056116;28;20268;-86
2023/07/28 08:33:03;;;;;;;1.90;1.10;;;22.70;99.90;;;;;;5050051;28;20192;-86
2023/07/28 08:35:29;;;;;;;2.50;1.37;;;22.70;99.90;;;;;;5054072;28;20652;-86
2023/07/28 08:37:55;;;;;;;1.20;1.10;;;22.80;99.90;;;;;;5054622;28;20259;-86
2023/07/28 08:40:27;;;;;;;1.37;1.13;;;22.80;99.90;;;;;;5053821;28;20194;-86
2023/07/28 08:42:56;;;;;;;1.10;1.00;;;22.80;99.90;;;;;;5054621;28;20298;-87
2023/07/28 08:45:24;;;;;;;1.30;1.20;;;22.80;99.90;;;;;;5053754;28;20200;-86
2023/07/28 08:47:49;;;;;;;1.07;1.00;;;22.80;99.90;;;;;;5058608;28;20790;-86
2023/07/28 08:50:15;;;;;;;1.23;1.13;;;22.90;99.90;;;;;;5052339;28;20306;-86
2023/07/28 08:52:45;;;;;;;2.60;1.20;;;22.90;99.90;;;;;;5057098;28;20557;-86
2023/07/28 08:55:13;;;;;;;1.27;1.17;;;22.90;99.90;;;;;;5054679;28;20187;-87
2023/07/28 08:57:41;;;;;;;1.00;1.00;;;22.90;99.90;;;;;;5058328;28;20195;-86
2023/07/28 09:00:17;;;;;;;1.07;1.00;;;22.90;99.90;;;;;;5053121;28;20183;-87
2023/07/28 09:02:43;;;;;;;2.30;1.17;;;22.90;99.90;;;;;;5056252;28;20287;-87
2023/07/28 09:05:23;;;;;;;1.33;1.07;;;23.00;99.90;;;;;;5056107;28;20644;-87
2023/07/28 09:07:52;;;;;;;1.27;0.97;;;22.90;99.90;;;;;;5059093;28;20176;-87
2023/07/28 09:10:24;;;;;;;0.90;0.90;;;23.00;99.90;;;;;;5057679;28;20285;-86
2023/07/28 09:12:50;;;;;;;1.10;1.00;;;23.10;99.90;;;;;;5055042;28;20287;-87
2023/07/28 09:15:17;;;;;;;1.17;1.07;;;23.10;99.90;;;;;;5055880;28;20217;-87
2023/07/28 09:17:44;;;;;;;1.13;1.03;;;23.10;99.90;;;;;;5053306;28;20578;-87
2023/07/28 09:20:16;;;;;;;1.37;1.00;;;23.10;99.90;;;;;;5053990;28;20554;-87
2023/07/28 09:22:43;;;;;;;1.57;1.17;;;23.10;99.90;;;;;;5059317;28;20184;-87
2023/07/28 09:25:19;;;;;;;1.60;1.10;;;23.10;99.90;;;;;;5053017;28;20180;-87
2023/07/28 09:27:54;;;;;;;1.20;1.10;;;23.10;99.90;;;;;;5054468;28;20486;-87
2023/07/28 09:30:24;;;;;;;1.60;1.00;;;23.10;99.90;;;;;;5056981;28;20218;-87
2023/07/28 09:33:01;;;;;;;0.87;0.87;;;23.20;99.90;;;;;;5052473;28;20195;-87
2023/07/28 09:35:29;;;;;;;0.83;0.83;;;23.20;99.90;;;;;;5057560;28;20462;-87
2023/07/28 09:37:56;;;;;;;1.30;1.10;;;23.20;99.90;;;;;;5054609;28;20569;-87
2023/07/28 09:40:22;;;;;;;2.43;1.00;;;23.20;99.90;;;;;;5052164;28;20203;-87
2023/07/28 09:42:54;;;;;;;1.30;0.90;;;23.20;99.90;;;;;;5054607;28;20262;-87
2023/07/28 09:45:23;;;;;;;1.10;1.00;;;23.10;99.90;;;;;;5050866;28;20488;-87
2023/07/28 09:48:02;;;;;;;1.17;1.07;;;23.10;99.90;;;;;;5052707;28;20318;-87
2023/07/28 09:50:32;;;;;;;2.23;1.03;;;23.20;99.90;;;;;;5049514;28;20220;-87
2023/07/28 09:53:04;;;;;;;1.10;1.00;;;23.20;99.90;;;;;;5050957;28;20232;-87
2023/07/28 09:55:39;;;;;;;1.00;1.00;;;23.20;99.90;;;;;;5048633;28;20478;-87
2023/07/28 09:58:12;;;;;;;3.47;1.10;;;23.30;99.90;;;;;;5065034;28;20564;-87
2023/07/28 10:00:38;;;;;;;4.27;1.20;;;23.30;99.90;;;;;;5049926;28;20184;-87
2023/07/28 10:03:05;;;;;;;1.30;0.87;;;23.50;99.90;;;;;;5051102;28;20215;-87
2023/07/28 10:05:38;;;;;;;0.97;0.80;;;23.60;99.90;;;;;;5050478;28;20298;-87
2023/07/28 10:08:10;;;;;;;2.03;0.90;;;23.70;99.90;;;;;;5053070;28;20654;-87
2023/07/28 10:10:36;;;;;;;0.97;0.97;;;23.80;99.90;;;;;;5050312;28;20547;-87
2023/07/28 10:13:04;;;;;;;0.90;0.80;;;23.80;99.90;;;;;;5052660;28;20192;-87
2023/07/28 10:15:32;;;;;;;1.30;1.00;;;23.70;99.90;;;;;;5054688;28;20179;-87
2023/07/28 10:18:01;;;;;;;1.93;1.10;;;23.70;99.90;;;;;;5053205;28;20191;-87
2023/07/28 10:20:34;;;;;;;2.17;1.00;;;23.70;99.90;;;;;;5054356;28;20581;-86
2023/07/28 10:23:07;;;;;;;1.10;1.00;;;23.80;99.90;;;;;;5053513;28;20226;-87
2023/07/28 10:25:37;;;;;;;1.43;1.10;;;23.70;99.90;;;;;;5054715;28;20696;-87
2023/07/28 10:28:25;;;;;;;3.40;1.10;;;23.80;99.90;;;;;;5056351;28;20179;-87
2023/07/28 10:31:00;;;;;;;2.83;1.10;;;23.80;99.90;;;;;;5058476;28;20301;-86
2023/07/28 10:33:38;;;;;;;2.13;1.17;;;23.80;99.90;;;;;;5053179;28;20242;-86
2023/07/28 10:36:25;;;;;;;2.07;1.20;;;23.70;99.90;;;;;;5053800;28;20183;-86
2023/07/28 10:39:19;;;;;;;3.70;1.20;;;23.70;99.90;;;;;;5052288;28;20257;-86
2023/07/28 10:42:13;;;;;;;1.27;1.17;;;23.70;99.90;;;;;;5050821;28;20195;-86
2023/07/28 10:44:39;;;;;;;1.23;1.10;;;23.70;99.90;;;;;;5053437;28;20190;-86
2023/07/28 10:47:13;;;;;;;1.30;1.20;;;23.70;99.90;;;;;;5066952;28;20179;-86
2023/07/28 10:49:39;;;;;;;1.30;1.20;;;23.70;99.90;;;;;;5053229;28;20207;-87
2023/07/28 10:52:04;;;;;;;1.50;1.30;;;23.70;99.90;;;;;;5049414;28;20175;-86
2023/07/28 10:54:31;;;;;;;1.60;1.30;;;23.80;99.90;;;;;;5050631;28;20522;-86
2023/07/28 10:57:03;;;;;;;1.83;1.30;;;23.90;99.90;;;;;;5057609;28;20733;-87
2023/07/28 10:59:32;;;;;;;1.63;1.37;;;23.80;99.90;;;;;;5052829;28;20503;-87
2023/07/28 11:01:58;;;;;;;1.73;1.33;;;23.90;99.90;;;;;;5055581;28;20329;-87
2023/07/28 11:04:24;;;;;;;1.23;1.13;;;23.90;99.90;;;;;;5054544;28;20299;-87
2023/07/28 11:06:50;;;;;;;1.87;1.30;;;24.00;99.90;;;;;;5052564;28;20490;-87
2023/07/28 11:09:18;;;;;;;2.70;1.37;;;23.90;99.90;;;;;;5053420;28;20199;-87
2023/07/28 11:11:47;;;;;;;1.33;1.23;;;24.00;99.90;;;;;;5067855;28;20188;-87
2023/07/28 11:14:15;;;;;;;1.57;1.10;;;24.10;99.90;;;;;;5068652;28;20266;-87
2023/07/28 11:16:48;;;;;;;1.20;1.10;;;24.10;99.90;;;;;;5063533;28;20514;-87
2023/07/28 11:19:19;;;;;;;1.80;1.13;;;24.10;99.90;;;;;;5050322;28;20211;-87
2023/07/28 11:21:51;;;;;;;1.40;1.10;;;24.20;99.90;;;;;;5050923;28;20257;-88
2023/07/28 11:24:19;;;;;;;1.30;1.20;;;24.20;99.90;;;;;;5050533;28;20187;-87
2023/07/28 11:26:51;;;;;;;1.50;1.30;;;24.20;99.90;;;;;;5051684;28;20218;-87
2023/07/28 11:29:18;;;;;;;1.40;1.10;;;24.30;99.80;;;;;;5046616;28;20427;-87
2023/07/28 11:31:44;;;;;;;1.27;1.17;;;24.30;99.60;;;;;;5044488;28;20401;-87
2023/07/28 11:34:20;;;;;;;2.40;1.30;;;24.30;99.60;;;;;;5055805;28;20180;-87
2023/07/28 11:37:28;;;;;;;1.37;1.27;;;24.20;99.60;;;;;;5054198;28;20345;-87
2023/07/28 11:39:36;;;;;;;1.40;1.20;;;24.30;99.90;;;;;;5046557;28;20318;-87
2023/07/28 11:42:08;;;;;;;1.63;1.30;;;24.30;99.80;;;;;;5056584;28;20343;-88
2023/07/28 11:44:35;;;;;;;1.53;1.10;;;24.30;99.70;;;;;;5057348;28;20191;-88
2023/07/28 11:47:09;;;;;;;1.67;1.20;;;24.40;99.80;;;;;;5058118;28;20430;-88
2023/07/28 11:49:46;;;;;;;1.30;1.20;;;24.40;99.60;;;;;;5055558;28;20215;-88
2023/07/28 11:52:15;;;;;;;1.50;1.20;;;24.40;99.70;;;;;;5070844;28;20176;-88
2023/07/28 11:54:44;;;;;;;1.77;1.27;;;24.40;99.60;;;;;;5052203;28;20431;-88
2023/07/28 11:57:16;;;;;;;1.37;1.20;;;24.40;99.90;;;;;;5053512;28;20349;-87
2023/07/28 11:59:43;;;;;;;2.00;1.37;;;24.40;99.90;;;;;;5056160;28;20549;-88
2023/07/28 12:02:13;;;;;;;1.40;1.10;;;24.40;99.70;;;;;;5058959;28;20211;-87
2023/07/28 12:04:47;;;;;;;1.00;1.00;;;24.40;99.70;;;;;;5059480;28;20180;-88
2023/07/28 12:07:21;;;;;;;1.20;1.10;;;24.40;99.60;;;;;;5055791;28;20237;-88
2023/07/28 12:09:53;;;;;;;1.20;1.10;;;24.50;99.90;;;;;;5057745;28;20218;-88
2023/07/28 12:12:21;;;;;;;1.70;1.10;;;24.40;99.90;;;;;;5054750;28;20184;-88
2023/07/28 12:14:48;;;;;;;1.17;1.07;;;24.50;99.60;;;;;;5057221;28;20183;-88
2023/07/28 12:17:14;;;;;;;1.10;1.10;;;24.50;99.60;;;;;;5053533;28;20524;-88
2023/07/28 12:20:14;;;;;;;2.10;1.37;;;24.50;99.90;;;;;;5058161;28;20265;-88
2023/07/28 12:22:44;;;;;;;1.17;1.10;;;24.50;99.80;;;;;;5056129;28;20191;-88
2023/07/28 12:25:10;;;;;;;1.03;0.93;;;24.50;99.80;;;;;;5058711;28;20290;-88
2023/07/28 12:27:39;;;;;;;1.50;1.10;;;24.50;99.40;;;;;;5057786;28;20282;-88
2023/07/28 12:30:14;;;;;;;1.43;1.10;;;24.50;99.40;;;;;;5058522;28;20315;-87
2023/07/28 12:32:39;;;;;;;1.10;1.00;;;24.50;99.90;;;;;;5057300;28;20179;-88
2023/07/28 12:35:09;;;;;;;1.13;0.90;;;24.50;99.90;;;;;;5056188;28;20249;-88
2023/07/28 12:37:35;;;;;;;0.83;0.83;;;24.50;99.70;;;;;;5056559;28;20338;-88
2023/07/28 12:40:01;;;;;;;1.30;1.20;;;24.50;99.50;;;;;;5039527;28;20715;-88
2023/07/28 12:42:27;;;;;;;1.30;1.20;;;24.50;99.50;;;;;;5056746;28;20241;-88
2023/07/28 12:44:53;;;;;;;0.90;0.90;;;24.50;99.90;;;;;;5062844;28;20208;-87
2023/07/28 12:47:18;;;;;;;1.30;1.20;;;24.50;99.50;;;;;;5055695;28;20599;-87
2023/07/28 12:49:44;;;;;;;1.20;1.10;;;24.50;99.50;;;;;;5052331;28;20214;-87
2023/07/28 12:52:13;;;;;;;2.03;1.10;;;24.40;99.90;;;;;;5053407;28;20430;-87
2023/07/28 12:54:39;;;;;;;1.03;1.00;;;24.40;99.50;;;;;;5052252;28;20187;-87
2023/07/28 12:57:12;;;;;;;1.50;0.90;;;24.50;99.80;;;;;;5050588;28;20552;-87